createdAt,value
2022-11-25T00:00:45.910Z,27
2022-11-25T00:03:16.951Z,24
2022-11-25T00:05:48.211Z,26
2022-11-25T00:08:18.834Z,24
2022-11-25T00:10:49.600Z,27
2022-11-25T00:13:20.971Z,26
2022-11-25T00:15:51.703Z,25
2022-11-25T00:18:23.533Z,24
2022-11-25T00:20:55.825Z,24
2022-11-25T00:23:30.464Z,27
2022-11-25T00:25:57.061Z,24
2022-11-25T00:28:28.490Z,24
2022-11-25T00:30:59.753Z,24
2022-11-25T00:33:30.401Z,28
2022-11-25T00:36:01.861Z,24
2022-11-25T00:38:34.304Z,24
2022-11-25T00:41:05.305Z,27
2022-11-25T00:43:36.149Z,25
2022-11-25T00:46:06.890Z,24
2022-11-25T00:48:37.807Z,24
2022-11-25T00:51:08.686Z,24
2022-11-25T00:53:39.716Z,24
2022-11-25T00:56:10.981Z,24
2022-11-25T00:58:41.821Z,25
2022-11-25T01:01:13.301Z,25
2022-11-25T01:03:44.466Z,24
2022-11-25T01:06:15.632Z,27
2022-11-25T01:08:45.862Z,24
2022-11-25T01:11:17.299Z,25
2022-11-25T01:13:48.941Z,29
2022-11-25T01:16:20.513Z,26
2022-11-25T01:18:50.999Z,28
2022-11-25T01:21:22.928Z,24
2022-11-25T01:23:53.961Z,28
2022-11-25T01:26:25.325Z,28
2022-11-25T01:28:55.788Z,24
2022-11-25T01:31:27.877Z,24
2022-11-25T01:33:58.996Z,26
2022-11-25T01:36:29.882Z,26
2022-11-25T01:39:01.324Z,26
2022-11-25T01:41:32.401Z,24
2022-11-25T01:44:03.881Z,28
2022-11-25T01:46:34.984Z,25
2022-11-25T01:49:05.983Z,28
2022-11-25T01:51:36.394Z,28
2022-11-25T01:54:07.886Z,32
2022-11-25T01:56:39.395Z,28
2022-11-25T01:59:10.453Z,28
2022-11-25T02:01:41.693Z,32
2022-11-25T02:04:12.701Z,28
2022-11-25T02:06:43.852Z,28
2022-11-25T02:09:14.937Z,28
2022-11-25T02:11:46.446Z,28
2022-11-25T02:14:17.116Z,32
2022-11-25T02:16:52.359Z,32
2022-11-25T02:19:23.986Z,31
2022-11-25T02:21:54.645Z,30
2022-11-25T02:24:25.185Z,28
2022-11-25T02:26:56.554Z,30
2022-11-25T02:29:27.748Z,28
2022-11-25T02:31:58.875Z,28
2022-11-25T02:34:29.418Z,28
2022-11-25T02:37:00.879Z,32
2022-11-25T02:39:32.754Z,28
2022-11-25T02:42:04.528Z,28
2022-11-25T02:44:34.887Z,32
2022-11-25T02:47:05.300Z,32
2022-11-25T02:49:36.684Z,32
2022-11-25T02:52:07.617Z,32
2022-11-25T02:54:38.106Z,32
2022-11-25T02:57:08.504Z,32
2022-11-25T02:59:39.564Z,32
2022-11-25T03:02:10.640Z,32
2022-11-25T03:04:42.805Z,32
2022-11-25T03:07:14.357Z,29
2022-11-25T03:09:45.711Z,32
2022-11-25T03:12:16.394Z,32
2022-11-25T03:14:47.533Z,28
2022-11-25T03:17:18.036Z,32
2022-11-25T03:19:48.912Z,32
2022-11-25T03:22:19.746Z,28
2022-11-25T03:24:50.609Z,32
2022-11-25T03:27:21.448Z,31
2022-11-25T03:29:52.625Z,32
2022-11-25T03:32:23.603Z,32
2022-11-25T03:34:54.498Z,32
2022-11-25T03:37:25.060Z,32
2022-11-25T03:39:55.749Z,31
2022-11-25T03:42:26.852Z,32
2022-11-25T03:44:58.167Z,32
2022-11-25T03:47:29.547Z,31
2022-11-25T03:50:01.179Z,28
2022-11-25T03:52:32.709Z,28
2022-11-25T03:55:04.024Z,29
2022-11-25T03:57:34.172Z,28
2022-11-25T04:00:05.284Z,29
2022-11-25T04:02:36.100Z,28
2022-11-25T04:05:07.792Z,33
2022-11-25T04:07:38.846Z,28
2022-11-25T04:10:09.636Z,28
2022-11-25T04:12:41.620Z,32
2022-11-25T04:15:12.824Z,28
2022-11-25T04:17:43.470Z,32
2022-11-25T04:20:14.259Z,32
2022-11-25T04:22:45.180Z,29
2022-11-25T04:25:16.359Z,30
2022-11-25T04:27:47.621Z,31
2022-11-25T04:30:18.240Z,28
2022-11-25T04:32:49.305Z,32
2022-11-25T04:35:20.640Z,32
2022-11-25T04:37:51.611Z,28
2022-11-25T04:40:22.471Z,29
2022-11-25T04:42:57.963Z,28
2022-11-25T04:45:25.078Z,29
2022-11-25T04:47:56.209Z,28
2022-11-25T04:50:26.788Z,32
2022-11-25T04:52:58.271Z,32
2022-11-25T04:55:29.398Z,28
2022-11-25T04:58:00.534Z,32
2022-11-25T05:00:30.825Z,28
2022-11-25T05:03:02.959Z,28
2022-11-25T05:05:33.742Z,28
2022-11-25T05:08:04.324Z,28
2022-11-25T05:10:37.876Z,28
2022-11-25T05:13:09.804Z,28
2022-11-25T05:15:40.682Z,31
2022-11-25T05:18:12.212Z,28
2022-11-25T05:20:44.018Z,28
2022-11-25T05:23:15.344Z,28
2022-11-25T05:25:46.617Z,30
2022-11-25T05:28:18.258Z,32
2022-11-25T05:30:49.246Z,29
2022-11-25T05:33:19.865Z,32
2022-11-25T05:35:50.801Z,32
2022-11-25T05:38:21.979Z,33
2022-11-25T05:40:52.859Z,31
2022-11-25T05:43:23.443Z,32
2022-11-25T05:45:53.691Z,32
2022-11-25T05:48:24.909Z,32
2022-11-25T05:50:55.352Z,32
2022-11-25T05:53:26.359Z,32
2022-11-25T05:55:56.794Z,32
2022-11-25T05:58:27.799Z,32
2022-11-25T06:00:58.567Z,32
2022-11-25T06:03:30.384Z,28
2022-11-25T06:06:00.895Z,32
2022-11-25T06:08:32.349Z,35
2022-11-25T06:11:03.138Z,33
2022-11-25T06:13:34.080Z,32
2022-11-25T06:16:07.762Z,32
2022-11-25T06:18:35.867Z,28
2022-11-25T06:21:06.071Z,30
2022-11-25T06:23:37.050Z,31
2022-11-25T06:26:08.708Z,29
2022-11-25T06:28:39.519Z,32
2022-11-25T06:31:10.552Z,28
2022-11-25T06:33:41.278Z,28
2022-11-25T06:36:11.806Z,28
2022-11-25T06:38:42.977Z,29
2022-11-25T06:41:13.971Z,32
2022-11-25T06:43:45.420Z,28
2022-11-25T06:46:19.780Z,32
2022-11-25T06:48:46.874Z,30
2022-11-25T06:51:18.041Z,31
2022-11-25T06:53:49.265Z,32
2022-11-25T06:56:19.442Z,32
2022-11-25T06:58:48.954Z,32
2022-11-25T07:01:19.941Z,33
2022-11-25T07:03:50.779Z,28
2022-11-25T07:06:21.697Z,28
2022-11-25T07:08:52.819Z,28
2022-11-25T07:11:24.090Z,28
2022-11-25T07:13:55.071Z,32
2022-11-25T07:16:29.406Z,29
2022-11-25T07:18:59.836Z,32
2022-11-25T07:21:29.935Z,32
2022-11-25T07:24:00.225Z,32
2022-11-25T07:26:31.583Z,32
2022-11-25T07:29:02.201Z,31
2022-11-25T07:31:33.914Z,32
2022-11-25T07:34:03.461Z,33
2022-11-25T07:36:34.087Z,31
2022-11-25T07:39:04.818Z,32
2022-11-25T07:41:35.631Z,32
2022-11-25T07:44:06.242Z,32
2022-11-25T07:46:36.521Z,32
2022-11-25T07:49:07.180Z,32
2022-11-25T07:51:38.140Z,32
2022-11-25T07:54:09.118Z,32
2022-11-25T07:56:39.657Z,32
2022-11-25T07:59:11.146Z,32
2022-11-25T08:01:41.330Z,32
2022-11-25T08:04:15.047Z,32
2022-11-25T08:06:43.462Z,32
2022-11-25T08:09:14.668Z,32
2022-11-25T08:11:46.146Z,32
2022-11-25T08:14:17.584Z,34
2022-11-25T08:16:48.809Z,36
2022-11-25T08:19:23.113Z,32
2022-11-25T08:21:51.866Z,36
2022-11-25T08:24:23.063Z,36
2022-11-25T08:26:54.259Z,36
2022-11-25T08:29:24.803Z,32
2022-11-25T08:31:55.451Z,32
2022-11-25T08:34:25.662Z,36
2022-11-25T08:36:56.969Z,32
2022-11-25T08:39:50.940Z,34
2022-11-25T08:41:58.724Z,32
2022-11-25T08:44:29.887Z,32
2022-11-25T08:47:00.622Z,32
2022-11-25T08:49:34.896Z,32
2022-11-25T08:52:02.729Z,34
2022-11-25T08:54:33.166Z,32
2022-11-25T08:57:03.841Z,32
2022-11-25T08:59:35.029Z,32
2022-11-25T09:02:05.736Z,32
2022-11-25T09:04:36.319Z,31
2022-11-25T09:07:07.433Z,29
2022-11-25T09:09:37.996Z,29
2022-11-25T09:12:08.190Z,28
2022-11-25T09:14:39.145Z,25
2022-11-25T09:17:09.368Z,26
2022-11-25T09:19:39.596Z,24
2022-11-25T09:22:10.203Z,24
2022-11-25T09:24:40.291Z,24
2022-11-25T09:27:10.942Z,24
2022-11-25T09:29:41.072Z,23
2022-11-25T09:32:11.564Z,20
2022-11-25T09:34:43.379Z,24
2022-11-25T09:37:14.070Z,21
2022-11-25T09:39:45.830Z,20
2022-11-25T09:42:16.800Z,21
2022-11-25T09:44:47.736Z,24
2022-11-25T09:47:18.315Z,24
2022-11-25T09:49:49.244Z,20
2022-11-25T09:52:20.662Z,24
2022-11-25T09:54:51.867Z,24
2022-11-25T09:57:21.968Z,20
2022-11-25T09:59:52.718Z,20
2022-11-25T10:02:23.482Z,21
2022-11-25T10:04:54.184Z,24
2022-11-25T10:07:24.643Z,19
2022-11-25T10:09:55.607Z,21
2022-11-25T10:12:26.009Z,23
2022-11-25T10:14:56.224Z,19
2022-11-25T10:17:26.901Z,20
2022-11-25T10:19:57.180Z,20
2022-11-25T10:22:28.124Z,28
2022-11-25T10:24:59.000Z,20
2022-11-25T10:27:29.911Z,17
2022-11-25T10:30:00.751Z,20
2022-11-25T10:32:31.745Z,16
2022-11-25T10:35:02.291Z,13
2022-11-25T10:37:33.358Z,12
2022-11-25T10:40:04.060Z,12
2022-11-25T10:42:34.392Z,10
2022-11-25T10:45:05.263Z,12
2022-11-25T10:47:36.520Z,16
2022-11-25T10:50:08.613Z,12
2022-11-25T10:52:38.740Z,12
2022-11-25T10:55:09.396Z,12
2022-11-25T10:57:40.260Z,12
2022-11-25T11:00:16.952Z,12
2022-11-25T11:02:42.980Z,16
2022-11-25T11:05:14.296Z,16
2022-11-25T11:07:44.959Z,17
2022-11-25T11:10:15.840Z,20
2022-11-25T11:12:46.443Z,16
2022-11-25T11:15:17.067Z,16
2022-11-25T11:17:48.106Z,16
2022-11-25T11:20:19.084Z,20
2022-11-25T11:22:49.977Z,12
2022-11-25T11:25:20.862Z,13
2022-11-25T11:27:52.451Z,8
2022-11-25T11:30:23.681Z,16
2022-11-25T11:32:54.100Z,12
2022-11-25T11:35:24.309Z,12
2022-11-25T11:37:54.489Z,12
2022-11-25T11:40:25.143Z,8
2022-11-25T11:42:55.889Z,12
2022-11-25T11:45:26.412Z,8
2022-11-25T11:47:57.799Z,12
2022-11-25T11:50:28.483Z,12
2022-11-25T11:52:59.516Z,12
2022-11-25T11:55:29.907Z,12
2022-11-25T11:58:00.621Z,11
2022-11-25T12:00:31.996Z,16
2022-11-25T12:03:02.598Z,12
2022-11-25T12:05:33.542Z,12
2022-11-25T12:08:04.283Z,8
2022-11-25T12:10:34.903Z,9
2022-11-25T12:13:05.353Z,8
2022-11-25T12:15:35.918Z,11
2022-11-25T12:18:06.606Z,10
2022-11-25T12:20:37.133Z,12
2022-11-25T12:23:07.262Z,12
2022-11-25T12:25:38.046Z,13
2022-11-25T12:28:08.809Z,16
2022-11-25T12:30:39.483Z,17
2022-11-25T12:33:10.541Z,18
2022-11-25T12:35:41.391Z,16
2022-11-25T12:38:12.067Z,17
2022-11-25T12:40:43.117Z,23
2022-11-25T12:43:14.877Z,16
2022-11-25T12:45:48.833Z,12
2022-11-25T12:48:21.373Z,12
2022-11-25T12:50:50.697Z,8
2022-11-25T12:53:21.992Z,12
2022-11-25T12:55:52.713Z,12
2022-11-25T12:58:23.280Z,8
2022-11-25T13:00:53.731Z,12
2022-11-25T13:03:24.630Z,12
2022-11-25T13:05:55.370Z,12
2022-11-25T13:08:25.901Z,15
2022-11-25T13:10:56.442Z,13
2022-11-25T13:13:27.246Z,12
2022-11-25T13:15:59.125Z,16
2022-11-25T13:18:29.609Z,15
2022-11-25T13:20:59.957Z,12
2022-11-25T13:23:30.445Z,12
2022-11-25T13:26:00.802Z,8
2022-11-25T13:28:31.520Z,38
2022-11-25T13:31:02.352Z,68
2022-11-25T13:33:32.869Z,32
2022-11-25T13:36:03.289Z,19
2022-11-25T13:38:33.677Z,20
2022-11-25T13:41:04.616Z,16
2022-11-25T13:43:35.466Z,16
2022-11-25T13:46:05.906Z,20
2022-11-25T13:48:36.125Z,34
2022-11-25T13:51:11.597Z,20
2022-11-25T13:53:38.530Z,30
2022-11-25T13:56:08.685Z,24
2022-11-25T13:58:39.732Z,20
2022-11-25T14:01:10.463Z,32
2022-11-25T14:03:41.120Z,24
2022-11-25T14:06:11.999Z,20
2022-11-25T14:08:43.395Z,24
2022-11-25T14:11:14.183Z,32
2022-11-25T14:13:45.351Z,21
2022-11-25T14:16:15.926Z,20
2022-11-25T14:19:22.124Z,17
2022-11-25T14:21:17.326Z,20
2022-11-25T14:23:47.541Z,16
2022-11-25T14:26:42.016Z,16
2022-11-25T14:28:48.973Z,21
2022-11-25T14:31:19.458Z,22
2022-11-25T14:33:49.129Z,19
2022-11-25T14:36:19.765Z,24
2022-11-25T14:38:50.796Z,20
2022-11-25T14:41:21.639Z,36
2022-11-25T14:43:52.751Z,32
2022-11-25T14:46:23.433Z,25
2022-11-25T14:48:54.461Z,32
2022-11-25T14:51:25.221Z,25
2022-11-25T14:53:55.977Z,28
2022-11-25T14:56:27.182Z,24
2022-11-25T14:58:58.681Z,31
2022-11-25T15:01:29.982Z,28
2022-11-25T15:04:01.179Z,28
2022-11-25T15:06:31.729Z,37
2022-11-25T15:09:03.382Z,33
2022-11-25T15:11:34.344Z,32
2022-11-25T15:14:05.465Z,28
2022-11-25T15:16:36.361Z,31
2022-11-25T15:19:11.185Z,28
2022-11-25T15:22:07.331Z,24
2022-11-25T15:24:13.474Z,21
2022-11-25T15:26:44.389Z,24
2022-11-25T15:29:15.322Z,28
2022-11-25T15:31:46.243Z,24
2022-11-25T15:34:17.127Z,24
2022-11-25T15:36:52.699Z,24
2022-11-25T15:39:19.492Z,22
2022-11-25T15:41:50.041Z,24
2022-11-25T15:44:21.291Z,28
2022-11-25T15:46:52.076Z,33
2022-11-25T15:49:22.808Z,32
2022-11-25T15:51:53.833Z,36
2022-11-25T15:54:25.005Z,28
2022-11-25T15:56:56.441Z,32
2022-11-25T15:59:28.467Z,24
2022-11-25T16:01:59.211Z,26
2022-11-25T16:04:30.579Z,28
2022-11-25T16:07:01.925Z,28
2022-11-25T16:09:33.316Z,28
2022-11-25T16:12:04.703Z,30
2022-11-25T16:14:35.909Z,28
2022-11-25T16:17:07.557Z,32
2022-11-25T16:19:38.582Z,33
2022-11-25T16:22:09.300Z,32
2022-11-25T16:24:40.481Z,32
2022-11-25T16:27:11.751Z,32
2022-11-25T16:29:43.150Z,32
2022-11-25T16:32:14.229Z,40
2022-11-25T16:34:45.539Z,44
2022-11-25T16:37:16.535Z,45
2022-11-25T16:39:47.366Z,46
2022-11-25T16:42:18.641Z,40
2022-11-25T16:44:49.412Z,41
2022-11-25T16:47:20.948Z,49
2022-11-25T16:49:52.229Z,44
2022-11-25T16:52:23.501Z,48
2022-11-25T16:54:54.582Z,48
2022-11-25T16:57:26.219Z,49
2022-11-25T16:59:58.670Z,61
2022-11-25T17:02:28.724Z,81
2022-11-25T17:04:59.924Z,81
2022-11-25T17:07:33.006Z,93
2022-11-25T17:10:02.181Z,96
2022-11-25T17:12:33.361Z,96
2022-11-25T17:15:04.311Z,97
2022-11-25T17:17:34.965Z,96
2022-11-25T17:20:05.941Z,98
2022-11-25T17:22:39.431Z,88
2022-11-25T17:25:08.071Z,98
2022-11-25T17:27:39.238Z,92
2022-11-25T17:30:10.331Z,94
2022-11-25T17:32:41.912Z,92
2022-11-25T17:35:14.273Z,92
2022-11-25T17:37:45.401Z,102
2022-11-25T17:40:17.641Z,92
2022-11-25T17:42:49.359Z,94
2022-11-25T17:45:20.661Z,100
2022-11-25T17:47:51.664Z,118
2022-11-25T17:50:22.411Z,90
2022-11-25T17:52:53.473Z,94
2022-11-25T17:55:24.600Z,92
2022-11-25T17:57:55.577Z,96
2022-11-25T18:00:26.753Z,95
2022-11-25T18:02:58.482Z,93
2022-11-25T18:05:30.545Z,89
2022-11-25T18:08:02.152Z,92
2022-11-25T18:10:33.126Z,88
2022-11-25T18:13:04.129Z,97
2022-11-25T18:15:35.250Z,92
2022-11-25T18:18:06.241Z,92
2022-11-25T18:20:37.142Z,89
2022-11-25T18:23:08.028Z,88
2022-11-25T18:25:39.862Z,87
2022-11-25T18:28:11.092Z,88
2022-11-25T18:30:42.115Z,91
2022-11-25T18:35:48.934Z,80
2022-11-25T18:38:19.921Z,82
2022-11-25T18:40:53.653Z,86
2022-11-25T18:43:21.399Z,81
2022-11-25T18:45:52.587Z,81
2022-11-25T18:48:24.928Z,81
2022-11-25T18:50:56.276Z,84
2022-11-25T18:53:26.999Z,88
2022-11-25T18:55:58.350Z,85
2022-11-25T18:58:29.665Z,80
2022-11-25T19:01:00.807Z,84
2022-11-25T19:03:31.760Z,81
2022-11-25T19:06:02.667Z,77
2022-11-25T19:08:34.035Z,78
2022-11-25T19:11:04.845Z,75
2022-11-25T19:13:36.076Z,72
2022-11-25T19:16:07.092Z,76
2022-11-25T19:18:37.890Z,72
2022-11-25T19:21:09.099Z,76
2022-11-25T19:23:39.917Z,72
2022-11-25T19:26:11.200Z,75
2022-11-25T19:28:42.219Z,72
2022-11-25T19:31:15.493Z,76
2022-11-25T19:33:49.901Z,72
2022-11-25T19:36:20.894Z,77
2022-11-25T19:38:51.908Z,92
2022-11-25T19:41:23.259Z,91
2022-11-25T19:43:55.467Z,98
2022-11-25T19:46:29.920Z,100
2022-11-25T19:48:57.319Z,93
2022-11-25T19:51:28.398Z,93
2022-11-25T19:53:59.133Z,88
2022-11-25T19:56:30.341Z,88
2022-11-25T19:59:01.861Z,88
2022-11-25T20:01:31.149Z,74
2022-11-25T20:04:02.148Z,72
2022-11-25T20:06:33.106Z,68
2022-11-25T20:09:07.716Z,68
2022-11-25T20:11:37.070Z,64
2022-11-25T20:14:08.176Z,68
2022-11-25T20:16:39.517Z,68
2022-11-25T20:19:10.115Z,67
2022-11-25T20:21:40.972Z,68
2022-11-25T20:24:12.953Z,70
2022-11-25T20:26:44.061Z,60
2022-11-25T20:29:16.232Z,58
2022-11-25T20:31:47.654Z,64
2022-11-25T20:34:18.899Z,54
2022-11-25T20:36:50.677Z,54
2022-11-25T20:39:21.583Z,55
2022-11-25T20:41:52.626Z,52
2022-11-25T20:44:22.877Z,58
2022-11-25T20:46:53.740Z,52
2022-11-25T20:49:25.178Z,60
2022-11-25T20:51:55.975Z,56
2022-11-25T20:54:27.135Z,54
2022-11-25T20:56:59.618Z,56
2022-11-25T20:59:30.863Z,53
2022-11-25T21:02:02.197Z,54
2022-11-25T21:04:33.296Z,54
2022-11-25T21:07:04.713Z,55
2022-11-25T21:09:35.482Z,51
2022-11-25T21:12:06.509Z,53
2022-11-25T21:14:37.929Z,50
2022-11-25T21:17:09.100Z,49
2022-11-25T21:19:40.454Z,48
2022-11-25T21:22:12.044Z,52
2022-11-25T21:24:43.230Z,56
2022-11-25T21:27:14.797Z,51
2022-11-25T21:29:45.031Z,53
2022-11-25T21:32:17.023Z,50
2022-11-25T21:34:48.319Z,47
2022-11-25T21:37:19.285Z,52
2022-11-25T21:39:50.607Z,50
2022-11-25T21:42:21.947Z,48
2022-11-25T21:44:53.773Z,56
2022-11-25T21:47:23.704Z,56
2022-11-25T21:49:54.732Z,52
2022-11-25T21:52:27.205Z,51
2022-11-25T21:54:58.603Z,56
2022-11-25T21:57:29.900Z,58
2022-11-25T22:00:01.019Z,56
2022-11-25T22:02:32.288Z,56
2022-11-25T22:05:03.492Z,56
2022-11-25T22:07:34.600Z,53
2022-11-25T22:10:05.851Z,52
2022-11-25T22:12:39.664Z,55
2022-11-25T22:15:06.155Z,61
2022-11-25T22:17:37.343Z,56
2022-11-25T22:20:08.396Z,56
2022-11-25T22:22:39.128Z,59
2022-11-25T22:25:10.274Z,56
2022-11-25T22:27:41.734Z,54
2022-11-25T22:30:13.320Z,56
2022-11-25T22:32:44.317Z,60
2022-11-25T22:35:15.863Z,60
2022-11-25T22:37:54.869Z,58
2022-11-25T22:40:20.106Z,59
2022-11-25T22:42:51.134Z,60
2022-11-25T22:45:22.579Z,56
2022-11-25T22:47:53.389Z,60
2022-11-25T22:50:24.294Z,61
2022-11-25T22:52:55.098Z,60
2022-11-25T22:55:26.274Z,60
2022-11-25T22:57:56.915Z,56
2022-11-25T23:00:28.573Z,58
2022-11-25T23:02:59.442Z,58
2022-11-25T23:05:32.906Z,52
2022-11-25T23:08:00.921Z,62
2022-11-25T23:10:32.408Z,56
2022-11-25T23:13:01.820Z,56
2022-11-25T23:15:33.070Z,59
2022-11-25T23:18:03.959Z,60
2022-11-25T23:20:34.188Z,56
2022-11-25T23:23:05.250Z,62
2022-11-25T23:25:35.765Z,55
2022-11-25T23:28:06.109Z,59
2022-11-25T23:30:36.299Z,56
2022-11-25T23:33:06.634Z,56
2022-11-25T23:35:38.862Z,60
2022-11-25T23:38:09.283Z,56
2022-11-25T23:40:39.645Z,56
2022-11-25T23:43:13.984Z,52
2022-11-25T23:45:44.527Z,60
2022-11-25T23:48:15.743Z,64
2022-11-25T23:50:45.824Z,60
2022-11-25T23:53:16.584Z,60
2022-11-25T23:55:47.010Z,60
2022-11-25T23:58:17.333Z,61
